createdAt,value
2022-10-24T00:02:18.109Z,99.90
2022-10-24T00:04:44.851Z,99.90
2022-10-24T00:07:11.644Z,99.90
2022-10-24T00:09:38.559Z,99.90
2022-10-24T00:12:05.433Z,99.90
2022-10-24T00:14:32.154Z,99.90
2022-10-24T00:16:58.874Z,99.90
2022-10-24T00:19:25.632Z,99.90
2022-10-24T00:21:52.328Z,99.90
2022-10-24T00:24:19.091Z,99.90
2022-10-24T00:26:45.807Z,99.90
2022-10-24T00:29:12.531Z,99.90
2022-10-24T00:31:39.268Z,99.90
2022-10-24T00:34:05.976Z,99.90
2022-10-24T00:36:32.760Z,99.90
2022-10-24T00:38:59.484Z,99.90
2022-10-24T00:41:28.064Z,99.90
2022-10-24T00:44:13.323Z,99.90
2022-10-24T00:46:41.175Z,99.90
2022-10-24T00:49:08.762Z,99.90
2022-10-24T00:51:35.471Z,99.90
2022-10-24T00:54:05.537Z,99.90
2022-10-24T00:56:32.806Z,99.90
2022-10-24T00:58:59.842Z,99.90
2022-10-24T01:01:27.226Z,99.90
2022-10-24T01:03:54.017Z,99.90
2022-10-24T01:06:39.214Z,99.90
2022-10-24T01:09:08.996Z,99.90
2022-10-24T01:11:35.709Z,99.90
2022-10-24T01:14:05.416Z,99.90
2022-10-24T01:17:01.297Z,99.90
2022-10-24T01:19:46.655Z,99.90
2022-10-24T01:22:15.465Z,99.90
2022-10-24T01:24:45.268Z,99.90
2022-10-24T01:27:20.624Z,99.90
2022-10-24T01:29:47.895Z,99.90
2022-10-24T01:32:17.198Z,99.90
2022-10-24T01:34:43.913Z,99.90
2022-10-24T01:37:14.993Z,99.90
2022-10-24T01:39:44.009Z,99.90
2022-10-24T01:42:10.787Z,99.90
2022-10-24T01:44:38.452Z,99.90
2022-10-24T01:47:06.276Z,99.90
2022-10-24T01:49:34.228Z,99.90
2022-10-24T01:52:01.702Z,99.90
2022-10-24T01:54:28.641Z,99.90
2022-10-24T01:56:55.404Z,99.90
2022-10-24T01:59:28.524Z,99.90
2022-10-24T02:01:55.921Z,99.90
2022-10-24T02:04:22.621Z,99.90
2022-10-24T02:06:49.335Z,99.90
2022-10-24T02:09:16.804Z,99.90
2022-10-24T02:11:44.027Z,99.90
2022-10-24T02:14:14.103Z,99.90
2022-10-24T02:16:40.912Z,99.90
2022-10-24T02:19:07.659Z,99.90
2022-10-24T02:21:38.586Z,99.90
2022-10-24T02:24:05.568Z,99.90
2022-10-24T02:26:44.257Z,99.90
2022-10-24T02:29:12.091Z,99.90
2022-10-24T02:31:40.194Z,99.90
2022-10-24T02:34:07.136Z,99.90
2022-10-24T02:36:34.287Z,99.90
2022-10-24T02:39:01.050Z,99.90
2022-10-24T02:41:29.349Z,99.90
2022-10-24T02:43:56.095Z,99.90
2022-10-24T02:46:22.850Z,99.90
2022-10-24T02:48:50.832Z,99.90
2022-10-24T02:51:17.854Z,99.90
2022-10-24T02:53:44.543Z,99.90
2022-10-24T02:56:11.241Z,99.90
2022-10-24T02:58:37.964Z,99.90
2022-10-24T03:01:04.845Z,99.90
2022-10-24T03:03:31.692Z,99.90
2022-10-24T03:05:58.386Z,99.90
2022-10-24T03:08:25.150Z,99.90
2022-10-24T03:10:51.861Z,99.90
2022-10-24T03:13:18.594Z,99.90
2022-10-24T03:15:45.415Z,99.90
2022-10-24T03:18:12.197Z,99.90
2022-10-24T03:20:38.930Z,99.90
2022-10-24T03:23:05.689Z,99.90
2022-10-24T03:25:32.400Z,99.90
2022-10-24T03:27:59.212Z,99.90
2022-10-24T03:30:25.938Z,99.90
2022-10-24T03:32:52.661Z,99.90
2022-10-24T03:35:19.393Z,99.90
2022-10-24T03:37:46.122Z,99.90
2022-10-24T03:40:12.874Z,99.90
2022-10-24T03:42:39.626Z,99.90
2022-10-24T03:45:06.779Z,99.90
2022-10-24T03:47:33.523Z,99.90
2022-10-24T03:50:00.267Z,99.90
2022-10-24T03:52:27.573Z,99.90
2022-10-24T03:54:54.361Z,99.90
2022-10-24T03:59:52.740Z,99.90
2022-10-24T04:02:19.526Z,99.90
2022-10-24T04:04:46.503Z,99.90
2022-10-24T04:07:13.227Z,99.90
2022-10-24T04:09:40.690Z,99.90
2022-10-24T04:12:07.423Z,99.90
2022-10-24T04:14:34.178Z,99.90
2022-10-24T04:17:01.001Z,99.90
2022-10-24T04:19:27.790Z,99.90
2022-10-24T04:21:54.536Z,99.90
2022-10-24T04:24:21.265Z,99.90
2022-10-24T04:26:47.980Z,99.90
2022-10-24T04:29:14.705Z,99.90
2022-10-24T04:31:41.476Z,99.90
2022-10-24T04:34:08.231Z,99.90
2022-10-24T04:36:35.087Z,99.90
2022-10-24T04:39:01.893Z,99.90
2022-10-24T04:41:28.649Z,99.90
2022-10-24T04:43:55.376Z,99.90
2022-10-24T04:46:22.122Z,99.90
2022-10-24T04:48:48.824Z,99.90
2022-10-24T04:51:18.614Z,99.90
2022-10-24T04:53:48.437Z,99.90
2022-10-24T04:56:15.180Z,99.90
2022-10-24T04:58:41.915Z,99.90
2022-10-24T05:01:08.713Z,99.90
2022-10-24T05:03:35.502Z,99.90
2022-10-24T05:06:02.266Z,99.90
2022-10-24T05:08:29.035Z,99.90
2022-10-24T05:10:55.827Z,99.90
2022-10-24T05:13:22.675Z,99.90
2022-10-24T05:15:49.480Z,99.90
2022-10-24T05:18:16.255Z,99.90
2022-10-24T05:20:42.990Z,99.90
2022-10-24T05:23:09.767Z,99.90
2022-10-24T05:25:36.519Z,99.90
2022-10-24T05:28:03.610Z,99.90
2022-10-24T05:30:30.414Z,99.90
2022-10-24T05:32:57.150Z,99.90
2022-10-24T05:35:23.891Z,99.90
2022-10-24T05:37:50.616Z,99.90
2022-10-24T05:40:17.378Z,99.90
2022-10-24T05:42:44.357Z,99.90
2022-10-24T05:45:12.291Z,99.90
2022-10-24T05:47:39.021Z,99.90
2022-10-24T05:50:05.979Z,99.90
2022-10-24T05:52:32.808Z,99.90
2022-10-24T05:55:08.050Z,99.90
2022-10-24T05:57:35.752Z,99.90
2022-10-24T06:00:02.547Z,99.90
2022-10-24T06:02:29.396Z,99.90
2022-10-24T06:04:57.251Z,99.90
2022-10-24T06:07:23.993Z,99.90
2022-10-24T06:09:50.965Z,99.90
2022-10-24T06:12:17.737Z,99.90
2022-10-24T06:14:44.939Z,99.90
2022-10-24T06:17:12.187Z,99.90
2022-10-24T06:19:39.287Z,99.90
2022-10-24T06:22:06.269Z,99.90
2022-10-24T06:24:37.489Z,99.90
2022-10-24T06:27:04.679Z,99.90
2022-10-24T06:29:31.473Z,99.90
2022-10-24T06:31:58.196Z,99.90
2022-10-24T06:34:24.938Z,99.90
2022-10-24T06:36:51.747Z,99.90
2022-10-24T06:39:18.469Z,99.90
2022-10-24T06:41:45.201Z,99.90
2022-10-24T06:44:11.973Z,99.90
2022-10-24T06:46:38.769Z,99.90
2022-10-24T06:49:05.548Z,99.90
2022-10-24T06:51:32.283Z,99.90
2022-10-24T06:53:59.365Z,99.90
2022-10-24T06:56:26.097Z,99.90
2022-10-24T06:58:52.959Z,99.90
2022-10-24T07:01:20.654Z,99.90
2022-10-24T07:03:47.649Z,99.90
2022-10-24T07:06:18.883Z,99.90
2022-10-24T07:08:45.942Z,99.90
2022-10-24T07:11:12.714Z,99.90
2022-10-24T07:13:39.471Z,99.90
2022-10-24T07:16:06.415Z,99.90
2022-10-24T07:18:33.218Z,99.90
2022-10-24T07:21:03.954Z,99.90
2022-10-24T07:23:30.803Z,99.90
2022-10-24T07:26:07.762Z,99.90
2022-10-24T07:28:34.870Z,99.90
2022-10-24T07:31:01.710Z,99.90
2022-10-24T07:33:28.558Z,99.70
2022-10-24T07:35:55.361Z,99.30
2022-10-24T07:38:22.175Z,97.80
2022-10-24T07:40:49.024Z,98.20
2022-10-24T07:43:15.924Z,97.80
2022-10-24T07:45:44.707Z,97.00
2022-10-24T07:48:13.334Z,96.90
2022-10-24T07:50:44.012Z,97.20
2022-10-24T07:53:11.268Z,97.60
2022-10-24T07:55:38.695Z,96.10
2022-10-24T07:58:05.577Z,95.40
2022-10-24T08:00:32.324Z,95.80
2022-10-24T08:02:59.209Z,95.30
2022-10-24T08:05:25.935Z,95.60
2022-10-24T08:07:56.148Z,95.50
2022-10-24T08:10:32.489Z,95.20
2022-10-24T08:12:59.322Z,94.10
2022-10-24T08:15:27.911Z,93.60
2022-10-24T08:17:54.949Z,92.80
2022-10-24T08:20:21.788Z,93.30
2022-10-24T08:22:48.566Z,93.40
2022-10-24T08:25:15.352Z,92.90
2022-10-24T08:30:09.903Z,93.10
2022-10-24T08:32:38.298Z,93.10
2022-10-24T08:35:08.557Z,92.80
2022-10-24T08:40:11.732Z,92.70
2022-10-24T08:42:38.536Z,93.30
2022-10-24T08:45:10.075Z,93.50
2022-10-24T08:48:03.177Z,93.90
2022-10-24T08:50:30.719Z,93.20
2022-10-24T08:53:07.326Z,92.90
2022-10-24T08:55:48.611Z,93.20
2022-10-24T08:58:17.745Z,93.50
2022-10-24T09:00:45.180Z,93.00
2022-10-24T09:03:11.977Z,93.50
2022-10-24T09:05:42.891Z,93.40
2022-10-24T09:08:33.006Z,93.30
2022-10-24T09:11:03.330Z,93.70
2022-10-24T09:13:30.531Z,94.20
2022-10-24T09:15:57.310Z,92.80
2022-10-24T09:18:24.062Z,92.50
2022-10-24T09:20:50.942Z,91.60
2022-10-24T09:23:18.260Z,91.70
2022-10-24T09:25:46.907Z,90.60
2022-10-24T09:28:13.721Z,89.30
2022-10-24T09:30:40.625Z,87.70
2022-10-24T09:33:16.560Z,86.50
2022-10-24T09:35:43.368Z,84.40
2022-10-24T09:38:27.525Z,83.00
2022-10-24T09:40:57.413Z,83.00
2022-10-24T09:43:26.334Z,80.80
2022-10-24T09:45:59.372Z,81.90
2022-10-24T09:48:44.746Z,77.90
2022-10-24T09:51:17.587Z,74.80
2022-10-24T09:53:57.085Z,72.50
2022-10-24T09:56:25.015Z,72.00
2022-10-24T09:58:51.754Z,71.60
2022-10-24T10:01:18.574Z,70.10
2022-10-24T10:04:00.672Z,68.70
2022-10-24T10:06:28.089Z,68.50
2022-10-24T10:08:55.540Z,65.70
2022-10-24T10:11:26.617Z,64.00
2022-10-24T10:13:55.159Z,62.70
2022-10-24T10:16:23.239Z,62.90
2022-10-24T10:18:50.000Z,63.50
2022-10-24T10:21:20.468Z,62.20
2022-10-24T10:23:51.063Z,62.40
2022-10-24T10:26:20.946Z,62.20
2022-10-24T10:29:06.594Z,63.10
2022-10-24T10:31:35.284Z,63.60
2022-10-24T10:34:05.107Z,63.20
2022-10-24T10:36:32.834Z,63.70
2022-10-24T10:39:05.724Z,63.80
2022-10-24T10:41:44.202Z,64.20
2022-10-24T10:44:17.192Z,64.00
2022-10-24T10:46:46.895Z,64.20
2022-10-24T10:49:32.916Z,63.60
2022-10-24T10:52:11.725Z,63.80
2022-10-24T10:54:53.552Z,61.40
2022-10-24T10:57:21.494Z,59.20
2022-10-24T11:00:11.344Z,58.40
2022-10-24T11:02:40.953Z,58.00
2022-10-24T11:05:16.565Z,58.90
2022-10-24T11:07:46.256Z,59.00
2022-10-24T11:10:14.392Z,60.20
2022-10-24T11:12:41.715Z,59.80
2022-10-24T11:15:20.816Z,60.90
2022-10-24T11:17:50.552Z,61.10
2022-10-24T11:20:17.395Z,60.30
2022-10-24T11:22:49.764Z,61.00
2022-10-24T11:25:22.581Z,62.40
2022-10-24T11:27:54.198Z,61.20
2022-10-24T11:30:20.943Z,61.90
2022-10-24T11:32:55.127Z,61.70
2022-10-24T11:35:24.854Z,61.50
2022-10-24T11:37:53.145Z,60.00
2022-10-24T11:40:20.974Z,61.40
2022-10-24T11:42:48.135Z,60.90
2022-10-24T11:45:19.144Z,62.00
2022-10-24T11:47:45.840Z,62.60
2022-10-24T11:50:21.793Z,61.60
2022-10-24T11:53:11.731Z,62.40
2022-10-24T11:55:39.163Z,62.10
2022-10-24T11:58:08.389Z,62.70
2022-10-24T12:00:55.370Z,62.50
2022-10-24T12:03:37.360Z,62.90
2022-10-24T12:06:22.127Z,63.60
2022-10-24T12:09:07.667Z,63.40
2022-10-24T12:11:49.381Z,63.80
2022-10-24T12:14:28.155Z,63.20
2022-10-24T12:16:58.348Z,62.70
2022-10-24T12:19:25.489Z,63.40
2022-10-24T12:21:52.860Z,63.80
2022-10-24T12:24:22.414Z,64.00
2022-10-24T12:26:56.609Z,64.00
2022-10-24T12:29:24.420Z,63.50
2022-10-24T12:31:51.233Z,63.50
2022-10-24T12:34:23.143Z,63.90
2022-10-24T12:37:11.364Z,63.40
2022-10-24T12:39:44.447Z,63.90
2022-10-24T12:42:17.417Z,64.20
2022-10-24T12:44:44.333Z,64.50
2022-10-24T12:47:24.922Z,64.90
2022-10-24T12:49:52.091Z,65.30
2022-10-24T12:52:30.871Z,65.80
2022-10-24T12:54:57.843Z,65.90
2022-10-24T12:57:32.131Z,65.90
2022-10-24T12:59:59.341Z,66.30
2022-10-24T13:02:41.219Z,66.50
2022-10-24T13:05:26.771Z,66.40
2022-10-24T13:08:12.005Z,65.50
2022-10-24T13:10:47.572Z,66.20
2022-10-24T13:13:32.808Z,66.30
2022-10-24T13:16:18.448Z,66.70
2022-10-24T13:18:57.098Z,66.80
2022-10-24T13:21:28.142Z,66.90
2022-10-24T13:24:08.786Z,66.80
2022-10-24T13:26:40.056Z,66.80
2022-10-24T13:29:11.819Z,67.10
2022-10-24T13:31:39.152Z,67.20
2022-10-24T13:34:24.243Z,67.00
2022-10-24T13:36:52.149Z,67.80
2022-10-24T13:39:19.904Z,67.50
2022-10-24T13:41:47.418Z,67.80
2022-10-24T13:44:25.493Z,67.60
2022-10-24T13:46:54.712Z,68.10
2022-10-24T13:49:37.570Z,68.20
2022-10-24T13:52:08.706Z,68.30
2022-10-24T13:54:36.452Z,68.80
2022-10-24T13:57:03.269Z,69.00
2022-10-24T13:59:39.005Z,68.90
2022-10-24T14:02:13.916Z,69.00
2022-10-24T14:04:41.156Z,69.40
2022-10-24T14:07:08.100Z,69.40
2022-10-24T14:09:38.719Z,70.00
2022-10-24T14:12:05.527Z,70.10
2022-10-24T14:14:33.181Z,69.80
2022-10-24T14:17:06.955Z,69.90
2022-10-24T14:19:38.089Z,70.20
2022-10-24T14:22:16.183Z,70.60
2022-10-24T14:24:46.306Z,70.80
2022-10-24T14:27:13.365Z,70.80
2022-10-24T14:29:40.076Z,71.10
2022-10-24T14:32:09.771Z,71.20
2022-10-24T14:34:36.999Z,71.20
2022-10-24T14:37:05.471Z,71.40
2022-10-24T14:39:32.200Z,71.40
2022-10-24T14:41:59.795Z,71.70
2022-10-24T14:44:26.565Z,71.80
2022-10-24T14:47:03.218Z,72.10
2022-10-24T14:49:30.526Z,72.40
2022-10-24T14:51:58.788Z,72.90
2022-10-24T14:54:26.781Z,74.10
2022-10-24T14:56:54.558Z,75.10
2022-10-24T14:59:21.272Z,76.20
2022-10-24T15:01:57.451Z,77.60
2022-10-24T15:04:29.087Z,78.10
2022-10-24T15:06:55.948Z,80.20
2022-10-24T15:09:22.992Z,82.00
2022-10-24T15:12:00.092Z,82.70
2022-10-24T15:14:35.861Z,83.50
2022-10-24T15:17:28.339Z,85.30
2022-10-24T15:19:58.983Z,86.80
2022-10-24T15:22:32.999Z,88.20
2022-10-24T15:25:04.260Z,89.30
2022-10-24T15:27:32.103Z,90.30
2022-10-24T15:29:58.892Z,91.20
2022-10-24T15:32:26.590Z,92.60
2022-10-24T15:34:53.990Z,94.20
2022-10-24T15:37:21.940Z,96.00
2022-10-24T15:39:48.862Z,97.60
2022-10-24T15:42:17.636Z,98.10
2022-10-24T15:44:46.863Z,99.60
2022-10-24T15:47:13.603Z,99.90
2022-10-24T15:49:40.508Z,99.90
2022-10-24T15:52:07.438Z,99.90
2022-10-24T15:54:34.230Z,99.90
2022-10-24T15:57:05.021Z,99.90
2022-10-24T15:59:32.302Z,99.90
2022-10-24T16:02:00.613Z,99.90
2022-10-24T16:04:27.693Z,99.90
2022-10-24T16:06:54.414Z,99.90
2022-10-24T16:09:22.677Z,99.90
2022-10-24T16:11:49.367Z,99.90
2022-10-24T16:14:17.791Z,99.90
2022-10-24T16:16:44.569Z,99.90
2022-10-24T16:19:11.643Z,99.90
2022-10-24T16:21:38.702Z,99.90
2022-10-24T16:24:05.615Z,99.90
2022-10-24T16:26:32.825Z,99.90
2022-10-24T16:28:59.542Z,99.90
2022-10-24T16:31:26.275Z,99.90
2022-10-24T16:33:53.015Z,99.90
2022-10-24T16:36:22.348Z,99.90
2022-10-24T16:38:51.483Z,99.90
2022-10-24T16:41:18.925Z,99.90
2022-10-24T16:43:49.073Z,99.90
2022-10-24T16:46:20.726Z,99.90
2022-10-24T16:48:47.481Z,99.90
2022-10-24T16:51:15.637Z,99.90
2022-10-24T16:53:42.357Z,99.90
2022-10-24T16:56:09.623Z,99.90
2022-10-24T16:58:36.815Z,99.90
2022-10-24T17:01:04.190Z,99.90
2022-10-24T17:03:31.114Z,99.90
2022-10-24T17:05:57.879Z,99.90
2022-10-24T17:08:24.600Z,99.90
2022-10-24T17:10:51.318Z,99.90
2022-10-24T17:13:18.048Z,99.90
2022-10-24T17:15:44.815Z,99.90
2022-10-24T17:18:13.328Z,99.90
2022-10-24T17:20:46.609Z,99.90
2022-10-24T17:23:14.645Z,99.90
2022-10-24T17:25:41.609Z,99.90
2022-10-24T17:28:08.427Z,99.90
2022-10-24T17:30:35.252Z,99.90
2022-10-24T17:33:02.106Z,99.90
2022-10-24T17:35:30.496Z,99.90
2022-10-24T17:38:06.516Z,99.90
2022-10-24T17:40:40.676Z,99.90
2022-10-24T17:43:10.485Z,99.90
2022-10-24T17:45:37.375Z,99.90
2022-10-24T17:48:04.212Z,99.90
2022-10-24T17:50:30.913Z,99.90
2022-10-24T17:52:57.631Z,99.90
2022-10-24T17:55:45.239Z,99.90
2022-10-24T17:58:11.815Z,99.90
2022-10-24T18:00:38.869Z,99.90
2022-10-24T18:03:05.772Z,99.90
2022-10-24T18:05:37.597Z,99.90
2022-10-24T18:08:04.903Z,99.90
2022-10-24T18:10:31.639Z,99.90
2022-10-24T18:15:26.019Z,99.90
2022-10-24T18:17:52.754Z,99.90
2022-10-24T18:20:19.618Z,99.90
2022-10-24T18:22:46.550Z,99.90
2022-10-24T18:25:14.317Z,99.90
2022-10-24T18:27:42.291Z,99.90
2022-10-24T18:30:09.321Z,99.90
2022-10-24T18:32:36.053Z,99.90
2022-10-24T18:35:02.816Z,99.90
2022-10-24T18:37:29.559Z,99.90
2022-10-24T18:39:56.423Z,99.90
2022-10-24T18:42:25.933Z,99.90
2022-10-24T18:44:52.957Z,99.90
2022-10-24T18:47:23.258Z,99.90
2022-10-24T18:49:52.476Z,99.90
2022-10-24T18:52:22.198Z,99.90
2022-10-24T18:54:51.707Z,99.90
2022-10-24T18:57:21.314Z,99.90
2022-10-24T18:59:48.136Z,99.90
2022-10-24T19:02:17.983Z,99.90
2022-10-24T19:04:44.788Z,99.90
2022-10-24T19:07:11.567Z,99.90
2022-10-24T19:09:38.333Z,99.90
2022-10-24T19:12:07.153Z,99.90
2022-10-24T19:14:34.053Z,99.90
2022-10-24T19:17:01.531Z,99.90
2022-10-24T19:19:29.109Z,99.90
2022-10-24T19:21:55.957Z,99.90
2022-10-24T19:24:22.824Z,99.90
2022-10-24T19:26:50.017Z,99.90
2022-10-24T19:29:16.878Z,99.90
2022-10-24T19:31:43.632Z,99.90
2022-10-24T19:34:10.596Z,99.90
2022-10-24T19:36:37.695Z,99.90
2022-10-24T19:39:04.426Z,99.90
2022-10-24T19:41:31.176Z,99.90
2022-10-24T19:43:57.932Z,99.90
2022-10-24T19:46:24.707Z,99.90
2022-10-24T19:48:53.185Z,99.90
2022-10-24T19:51:20.212Z,99.90
2022-10-24T19:53:47.009Z,99.90
2022-10-24T19:56:14.870Z,99.90
2022-10-24T19:58:41.866Z,99.90
2022-10-24T20:01:10.075Z,99.90
2022-10-24T20:03:37.316Z,99.90
2022-10-24T20:06:04.281Z,99.90
2022-10-24T20:08:30.987Z,99.90
2022-10-24T20:10:57.741Z,99.90
2022-10-24T20:13:24.513Z,99.90
2022-10-24T20:15:58.003Z,99.90
2022-10-24T20:18:24.847Z,99.90
2022-10-24T20:20:51.677Z,99.90
2022-10-24T20:23:19.134Z,99.90
2022-10-24T20:25:45.921Z,99.90
2022-10-24T20:28:12.652Z,99.90
2022-10-24T20:30:43.099Z,99.90
2022-10-24T20:33:09.816Z,99.90
2022-10-24T20:35:36.544Z,99.90
2022-10-24T20:38:03.297Z,99.90
2022-10-24T20:40:30.018Z,99.90
2022-10-24T20:42:56.761Z,99.90
2022-10-24T20:45:23.514Z,99.90
2022-10-24T20:47:50.397Z,99.90
2022-10-24T20:50:17.148Z,99.90
2022-10-24T20:52:44.197Z,99.90
2022-10-24T20:55:19.878Z,99.90
2022-10-24T20:57:57.971Z,99.90
2022-10-24T21:00:24.686Z,99.90
2022-10-24T21:02:51.566Z,99.90
2022-10-24T21:05:18.292Z,99.90
2022-10-24T21:07:48.117Z,99.90
2022-10-24T21:10:14.873Z,99.90
2022-10-24T21:12:44.009Z,99.90
2022-10-24T21:15:13.681Z,99.90
2022-10-24T21:17:40.491Z,99.90
2022-10-24T21:20:07.347Z,99.90
2022-10-24T21:22:34.063Z,99.90
2022-10-24T21:25:00.800Z,99.90
2022-10-24T21:27:27.520Z,99.90
2022-10-24T21:29:54.239Z,99.90
2022-10-24T21:32:20.940Z,99.90
2022-10-24T21:34:47.657Z,99.90
2022-10-24T21:37:14.382Z,99.90
2022-10-24T21:39:41.095Z,99.90
2022-10-24T21:42:07.797Z,99.90
2022-10-24T21:44:34.842Z,99.90
2022-10-24T21:47:01.633Z,99.90
2022-10-24T21:49:28.423Z,99.90
2022-10-24T21:51:55.217Z,99.90
2022-10-24T21:54:22.800Z,99.90
2022-10-24T21:56:49.546Z,99.90
2022-10-24T21:59:17.407Z,99.90
2022-10-24T22:01:44.827Z,99.90
2022-10-24T22:04:12.026Z,99.90
2022-10-24T22:06:38.811Z,99.90
2022-10-24T22:09:05.948Z,99.90
2022-10-24T22:11:33.500Z,99.90
2022-10-24T22:14:00.365Z,99.90
2022-10-24T22:16:27.945Z,99.90
2022-10-24T22:18:54.762Z,99.90
2022-10-24T22:21:28.934Z,99.90
2022-10-24T22:23:56.712Z,99.90
2022-10-24T22:26:23.799Z,99.90
2022-10-24T22:28:50.537Z,99.90
2022-10-24T22:31:17.433Z,99.90
2022-10-24T22:33:44.285Z,99.90
2022-10-24T22:36:17.294Z,99.90
2022-10-24T22:38:44.172Z,99.90
2022-10-24T22:41:11.071Z,99.90
2022-10-24T22:43:37.850Z,99.90
2022-10-24T22:46:13.370Z,99.90
2022-10-24T22:48:40.328Z,99.90
2022-10-24T22:51:07.082Z,99.90
2022-10-24T22:53:33.914Z,99.90
2022-10-24T22:56:06.444Z,99.90
2022-10-24T22:58:33.287Z,99.90
2022-10-24T23:01:01.001Z,99.90
2022-10-24T23:03:34.066Z,99.90
2022-10-24T23:06:02.493Z,99.90
2022-10-24T23:08:31.060Z,99.90
2022-10-24T23:10:57.917Z,99.90
2022-10-24T23:13:24.806Z,99.90
2022-10-24T23:15:51.530Z,99.90
2022-10-24T23:18:18.395Z,99.90
2022-10-24T23:20:45.933Z,99.90
2022-10-24T23:23:29.902Z,99.90
2022-10-24T23:25:58.382Z,99.90
2022-10-24T23:28:28.677Z,99.90
2022-10-24T23:30:55.563Z,99.90
2022-10-24T23:33:27.634Z,99.90
2022-10-24T23:35:55.736Z,99.90
2022-10-24T23:38:22.530Z,99.90
2022-10-24T23:40:49.423Z,99.90
2022-10-24T23:43:16.426Z,99.90
2022-10-24T23:45:48.132Z,99.90
2022-10-24T23:48:33.552Z,99.90
2022-10-24T23:51:04.240Z,99.90
2022-10-24T23:53:32.945Z,99.90
2022-10-24T23:58:31.454Z,99.90
